Time;durP1;ratioP1;P1;durP2;ratioP2;P2;SDS_P1;SDS_P2;PMS_P1;PMS_P2;Temp;Humidity;BMP_temperature;BMP_pressure;BME280_temperature;BME280_humidity;BME280_pressure;Samples;Min_cycle;Max_cycle;Signal;HPM_P1;HPM_P2
2021/09/03 00:01:10;;;;;;;13.30;8.60;;;12.80;99.90;;;;;;5031357;28;20215;-69
2021/09/03 00:03:37;;;;;;;10.83;7.97;;;12.90;99.90;;;;;;5028026;28;20562;-69
2021/09/03 00:06:04;;;;;;;12.13;7.03;;;12.90;99.90;;;;;;5028203;28;20204;-69
2021/09/03 00:08:31;;;;;;;9.43;7.30;;;12.90;99.90;;;;;;5029907;28;20212;-69
2021/09/03 00:10:58;;;;;;;9.70;7.20;;;13.00;99.90;;;;;;5031406;28;20313;-69
2021/09/03 00:13:26;;;;;;;11.70;9.03;;;12.90;99.90;;;;;;5027171;28;20290;-69
2021/09/03 00:15:54;;;;;;;14.13;10.03;;;12.70;99.90;;;;;;5030978;28;20287;-69
2021/09/03 00:18:21;;;;;;;16.57;10.53;;;12.50;99.90;;;;;;5032034;28;20218;-69
2021/09/03 00:20:48;;;;;;;17.33;6.03;;;12.00;99.90;;;;;;5029877;28;20200;-69
2021/09/03 00:23:15;;;;;;;9.90;5.53;;;11.90;99.90;;;;;;5029778;28;20290;-69
2021/09/03 00:25:42;;;;;;;15.27;4.67;;;11.90;99.90;;;;;;5013958;28;20232;-69
2021/09/03 00:28:09;;;;;;;7.13;4.93;;;12.00;99.90;;;;;;5030140;28;20200;-69
2021/09/03 00:30:36;;;;;;;4.70;4.20;;;12.10;99.90;;;;;;5019806;28;20192;-69
2021/09/03 00:33:05;;;;;;;7.37;5.23;;;12.10;99.90;;;;;;5032159;28;20647;-69
2021/09/03 00:35:31;;;;;;;6.83;5.57;;;12.10;99.90;;;;;;5013766;28;20207;-69
2021/09/03 00:37:58;;;;;;;5.53;4.63;;;12.10;99.90;;;;;;5014077;28;20206;-69
2021/09/03 00:40:25;;;;;;;67.10;9.87;;;12.20;99.90;;;;;;5014034;28;20639;-69
2021/09/03 00:42:52;;;;;;;26.40;9.63;;;12.00;99.90;;;;;;5024347;28;20205;-69
2021/09/03 00:45:19;;;;;;;18.07;9.07;;;11.90;99.90;;;;;;5032075;28;20246;-69
2021/09/03 00:47:46;;;;;;;14.30;9.87;;;11.90;99.90;;;;;;5020695;28;20216;-69
2021/09/03 00:50:14;;;;;;;12.93;9.40;;;12.00;99.90;;;;;;5019685;28;20207;-69
2021/09/03 00:52:41;;;;;;;29.23;7.70;;;12.20;99.90;;;;;;5012654;28;20212;-69
2021/09/03 00:55:09;;;;;;;12.53;6.60;;;12.10;99.90;;;;;;5019587;28;20196;-69
2021/09/03 00:57:36;;;;;;;26.10;8.00;;;12.00;99.90;;;;;;5013160;28;20208;-69
2021/09/03 01:00:05;;;;;;;8.53;6.60;;;11.80;99.90;;;;;;5022969;28;20204;-69
2021/09/03 01:02:32;;;;;;;11.27;7.83;;;11.80;99.90;;;;;;5026734;28;20231;-69
2021/09/03 01:04:59;;;;;;;10.17;8.20;;;11.90;99.90;;;;;;5016435;28;20228;-69
2021/09/03 01:07:27;;;;;;;15.80;9.47;;;12.10;99.90;;;;;;5025301;28;20557;-69
2021/09/03 01:09:54;;;;;;;15.93;10.40;;;12.20;99.90;;;;;;5017507;28;20219;-69
2021/09/03 01:12:21;;;;;;;15.40;10.20;;;12.20;99.90;;;;;;5019400;28;20299;-69
2021/09/03 01:14:48;;;;;;;14.23;8.77;;;12.20;99.90;;;;;;5012454;28;20205;-69
2021/09/03 01:17:15;;;;;;;10.93;8.23;;;12.10;99.90;;;;;;5023636;28;20207;-69
2021/09/03 01:19:42;;;;;;;11.03;8.40;;;12.00;99.90;;;;;;5031088;28;20211;-69
2021/09/03 01:22:10;;;;;;;11.63;8.23;;;12.00;99.90;;;;;;5031128;28;20233;-69
2021/09/03 01:24:37;;;;;;;9.73;7.57;;;11.90;99.90;;;;;;5032377;28;20231;-69
2021/09/03 01:27:04;;;;;;;10.90;7.90;;;12.00;99.90;;;;;;5032078;28;20195;-69
2021/09/03 01:29:31;;;;;;;11.87;7.30;;;12.00;99.90;;;;;;5031179;28;20207;-69
2021/09/03 01:31:58;;;;;;;11.77;9.37;;;12.00;99.90;;;;;;5032250;28;20556;-69
2021/09/03 01:34:25;;;;;;;12.93;9.30;;;12.00;99.90;;;;;;5032463;28;20202;-69
2021/09/03 01:36:52;;;;;;;13.07;8.73;;;11.80;99.90;;;;;;5031803;28;20207;-69
2021/09/03 01:39:20;;;;;;;10.50;7.57;;;11.60;99.90;;;;;;5022384;28;20212;-69
2021/09/03 01:41:48;;;;;;;9.63;7.50;;;11.50;99.90;;;;;;5032397;28;20203;-69
2021/09/03 01:44:15;;;;;;;7.77;5.63;;;11.40;99.90;;;;;;5022066;28;20223;-69
2021/09/03 01:46:41;;;;;;;4.73;4.17;;;11.40;99.90;;;;;;5031993;28;20650;-69
2021/09/03 01:49:08;;;;;;;7.07;5.47;;;11.40;99.90;;;;;;5016810;28;20294;-69
2021/09/03 01:51:35;;;;;;;6.70;5.17;;;11.40;99.90;;;;;;5012512;28;20200;-69
2021/09/03 01:54:02;;;;;;;8.53;6.60;;;11.60;99.90;;;;;;5022295;28;20647;-69
2021/09/03 01:56:30;;;;;;;9.10;5.67;;;11.70;99.90;;;;;;5012670;28;20636;-69
2021/09/03 01:58:57;;;;;;;7.77;6.67;;;11.70;99.90;;;;;;5021512;28;20201;-69
2021/09/03 02:01:24;;;;;;;10.70;7.20;;;11.20;99.90;;;;;;5012819;28;20654;-69
2021/09/03 02:03:51;;;;;;;11.07;5.73;;;11.10;99.90;;;;;;5027970;28;20585;-69
2021/09/03 02:06:17;;;;;;;7.40;5.60;;;11.10;99.90;;;;;;5030968;28;20215;-69
2021/09/03 02:08:44;;;;;;;11.20;7.90;;;11.10;99.90;;;;;;5034121;28;20200;-69
2021/09/03 02:11:11;;;;;;;11.27;7.53;;;11.20;99.90;;;;;;5033920;28;20206;-69
2021/09/03 02:13:40;;;;;;;14.70;9.67;;;11.30;99.90;;;;;;5034547;28;20564;-74
2021/09/03 02:16:07;;;;;;;14.30;9.80;;;11.60;99.90;;;;;;5035040;28;20544;-74
2021/09/03 02:18:33;;;;;;;15.37;9.67;;;11.80;99.90;;;;;;5029628;28;20200;-73
2021/09/03 02:21:00;;;;;;;12.57;8.77;;;11.90;99.90;;;;;;5034423;28;20543;-73
2021/09/03 02:23:27;;;;;;;7.80;7.00;;;11.80;99.90;;;;;;5034158;28;20211;-74
2021/09/03 02:25:54;;;;;;;13.30;7.77;;;11.60;99.90;;;;;;5035211;28;20575;-74
2021/09/03 02:28:21;;;;;;;7.43;6.27;;;11.50;99.90;;;;;;5034342;28;20199;-74
2021/09/03 02:30:49;;;;;;;5.70;5.07;;;11.60;99.90;;;;;;5032093;28;20795;-74
2021/09/03 02:33:16;;;;;;;8.60;5.87;;;11.30;99.90;;;;;;5025032;28;20548;-73
2021/09/03 02:35:43;;;;;;;8.80;6.47;;;11.20;99.90;;;;;;5030144;28;20196;-73
2021/09/03 02:38:11;;;;;;;10.00;6.60;;;11.20;99.90;;;;;;5029657;28;20288;-73
2021/09/03 02:40:38;;;;;;;10.30;7.17;;;11.40;99.90;;;;;;5028643;28;20210;-73
2021/09/03 02:43:05;;;;;;;10.30;7.57;;;11.30;99.90;;;;;;5027253;28;20192;-73
2021/09/03 02:45:32;;;;;;;13.70;8.10;;;11.50;99.90;;;;;;5034669;28;20223;-73
2021/09/03 02:48:01;;;;;;;11.80;8.17;;;11.70;99.90;;;;;;5026058;28;20646;-73
2021/09/03 02:50:28;;;;;;;14.30;9.60;;;11.80;99.90;;;;;;5034719;28;20913;-73
2021/09/03 02:52:58;;;;;;;16.10;9.00;;;11.80;99.90;;;;;;5031406;28;20204;-73
2021/09/03 02:55:26;;;;;;;15.50;8.20;;;11.90;99.90;;;;;;5034872;28;20556;-73
2021/09/03 02:57:52;;;;;;;13.67;8.90;;;11.90;99.90;;;;;;5031706;28;20216;-73
2021/09/03 03:00:20;;;;;;;14.83;10.13;;;12.00;99.90;;;;;;5034457;28;20556;-73
2021/09/03 03:02:47;;;;;;;17.90;10.93;;;12.00;99.90;;;;;;5034567;28;20200;-73
2021/09/03 03:05:15;;;;;;;16.50;9.93;;;12.00;99.90;;;;;;5034808;28;20215;-73
2021/09/03 03:07:42;;;;;;;12.83;8.73;;;12.00;99.90;;;;;;5033122;28;20212;-73
2021/09/03 03:10:10;;;;;;;12.43;8.33;;;11.90;99.90;;;;;;5030633;28;20200;-73
2021/09/03 03:12:37;;;;;;;6.07;4.43;;;12.00;99.90;;;;;;5031691;28;20211;-73
2021/09/03 03:15:05;;;;;;;10.57;7.23;;;11.90;99.90;;;;;;5041907;28;20286;-73
2021/09/03 03:17:31;;;;;;;11.10;8.33;;;11.60;99.90;;;;;;5031864;28;20199;-73
2021/09/03 03:19:58;;;;;;;12.77;8.70;;;11.40;99.90;;;;;;5032296;28;20203;-73
2021/09/03 03:22:26;;;;;;;15.73;10.40;;;11.20;99.90;;;;;;5033262;28;20249;-73
2021/09/03 03:24:53;;;;;;;13.37;9.17;;;11.20;99.90;;;;;;5031520;28;20226;-73
2021/09/03 03:27:20;;;;;;;13.60;9.30;;;11.20;99.90;;;;;;5034301;28;20200;-73
2021/09/03 03:29:47;;;;;;;13.93;9.27;;;11.30;99.90;;;;;;5031189;28;20203;-73
2021/09/03 03:32:14;;;;;;;14.43;9.43;;;11.30;99.90;;;;;;5033233;28;20222;-73
2021/09/03 03:34:41;;;;;;;16.27;9.80;;;11.50;99.90;;;;;;5034244;28;20556;-73
2021/09/03 03:37:08;;;;;;;14.10;9.80;;;11.50;99.90;;;;;;5033112;28;20557;-73
2021/09/03 03:39:36;;;;;;;14.97;9.33;;;11.70;99.90;;;;;;5022931;28;20203;-73
2021/09/03 03:42:03;;;;;;;13.90;9.90;;;11.80;99.90;;;;;;5032462;28;20682;-73
2021/09/03 03:44:30;;;;;;;14.03;10.27;;;11.80;99.90;;;;;;5034250;28;20200;-73
2021/09/03 03:46:57;;;;;;;16.40;10.90;;;11.90;99.90;;;;;;5033318;28;20662;-73
2021/09/03 03:49:24;;;;;;;14.20;9.93;;;11.90;99.90;;;;;;5031813;28;20287;-73
2021/09/03 03:51:51;;;;;;;16.33;10.80;;;12.00;99.90;;;;;;5033626;28;20294;-73
2021/09/03 03:54:18;;;;;;;16.17;10.77;;;11.90;99.90;;;;;;5031227;28;20200;-73
2021/09/03 03:56:46;;;;;;;19.10;11.03;;;11.90;99.90;;;;;;5033514;28;20319;-73
2021/09/03 03:59:13;;;;;;;22.50;11.83;;;12.00;99.90;;;;;;5033561;28;20208;-73
2021/09/03 04:01:40;;;;;;;16.97;10.40;;;11.90;99.90;;;;;;5033916;28;20199;-73
2021/09/03 04:04:07;;;;;;;38.37;10.80;;;12.00;99.90;;;;;;5030812;28;20214;-73
2021/09/03 04:06:34;;;;;;;21.10;9.93;;;12.00;99.90;;;;;;5033678;28;20231;-73
2021/09/03 04:09:01;;;;;;;19.63;10.63;;;11.90;99.90;;;;;;5032107;28;20234;-73
2021/09/03 04:11:28;;;;;;;28.20;9.80;;;11.90;99.90;;;;;;5033990;28;20669;-73
2021/09/03 04:13:56;;;;;;;24.50;10.60;;;11.80;99.90;;;;;;5019377;28;20211;-72
2021/09/03 04:16:23;;;;;;;19.23;10.40;;;11.80;99.90;;;;;;5021801;28;20622;-73
2021/09/03 04:18:50;;;;;;;19.53;9.83;;;11.80;99.90;;;;;;5031526;28;20294;-73
2021/09/03 04:21:17;;;;;;;25.23;9.83;;;11.90;99.90;;;;;;5032841;28;20204;-73
2021/09/03 04:23:44;;;;;;;22.60;9.63;;;11.90;99.90;;;;;;5021126;28;20226;-73
2021/09/03 04:26:10;;;;;;;17.00;9.20;;;11.80;99.90;;;;;;5033254;28;20588;-73
2021/09/03 04:28:37;;;;;;;17.83;9.90;;;11.80;99.90;;;;;;5030590;28;20206;-73
2021/09/03 04:31:05;;;;;;;13.27;8.57;;;11.80;99.90;;;;;;5032847;28;20552;-73
2021/09/03 04:33:32;;;;;;;11.80;9.00;;;11.70;99.90;;;;;;5029445;28;20235;-73
2021/09/03 04:35:59;;;;;;;11.97;8.73;;;11.80;99.90;;;;;;5028223;28;20209;-73
2021/09/03 04:38:27;;;;;;;10.73;9.00;;;11.80;99.90;;;;;;5025781;28;20202;-73
2021/09/03 04:40:54;;;;;;;11.53;9.07;;;11.70;99.90;;;;;;5018960;28;20225;-73
2021/09/03 04:43:21;;;;;;;11.50;8.80;;;11.80;99.90;;;;;;5021237;28;20204;-73
2021/09/03 04:45:47;;;;;;;18.30;9.17;;;11.80;99.90;;;;;;5026918;28;20219;-73
2021/09/03 04:48:16;;;;;;;14.73;9.60;;;11.70;99.90;;;;;;5029820;28;20200;-73
2021/09/03 04:50:43;;;;;;;32.13;10.87;;;11.60;99.90;;;;;;5030138;28;20217;-73
2021/09/03 04:53:10;;;;;;;31.73;10.97;;;11.50;99.90;;;;;;5030361;28;20196;-73
2021/09/03 04:55:37;;;;;;;42.33;10.37;;;11.60;99.90;;;;;;5030967;28;20199;-73
2021/09/03 04:58:04;;;;;;;28.23;10.20;;;11.60;99.90;;;;;;5032193;28;20203;-73
2021/09/03 05:00:30;;;;;;;19.50;9.43;;;11.60;99.90;;;;;;5030604;28;20211;-73
2021/09/03 05:02:57;;;;;;;16.97;10.00;;;11.60;99.90;;;;;;5032165;28;20207;-73
2021/09/03 05:05:26;;;;;;;17.33;9.33;;;11.60;99.90;;;;;;5026376;28;20231;-73
2021/09/03 05:07:52;;;;;;;16.90;10.53;;;11.50;99.90;;;;;;5032191;28;20210;-72
2021/09/03 05:10:19;;;;;;;29.23;10.97;;;11.50;99.90;;;;;;5030960;28;20203;-73
2021/09/03 05:12:46;;;;;;;14.20;8.80;;;11.50;99.90;;;;;;5027654;28;20195;-73
2021/09/03 05:15:15;;;;;;;12.20;9.37;;;11.50;99.90;;;;;;5032119;28;20207;-73
2021/09/03 05:17:47;;;;;;;12.00;8.93;;;11.40;99.90;;;;;;5031882;28;20582;-74
2021/09/03 05:20:15;;;;;;;11.60;9.00;;;11.50;99.90;;;;;;5026281;28;20207;-74
2021/09/03 05:22:43;;;;;;;11.13;9.07;;;11.50;99.90;;;;;;5030789;28;20212;-74
2021/09/03 05:25:13;;;;;;;12.43;9.83;;;11.60;99.90;;;;;;5024332;28;20212;-74
2021/09/03 05:27:41;;;;;;;12.57;9.23;;;11.50;99.90;;;;;;5028429;28;20257;-74
2021/09/03 05:30:08;;;;;;;15.60;9.80;;;11.50;99.90;;;;;;5030989;28;20204;-74
2021/09/03 05:32:36;;;;;;;11.37;9.03;;;11.40;99.90;;;;;;5031858;28;20199;-74
2021/09/03 05:35:03;;;;;;;13.93;10.03;;;11.50;99.90;;;;;;5022610;28;20204;-74
2021/09/03 05:37:29;;;;;;;14.93;10.60;;;11.40;99.90;;;;;;5030563;28;20279;-74
2021/09/03 05:40:00;;;;;;;18.07;10.43;;;11.50;99.90;;;;;;5030781;28;20203;-74
2021/09/03 05:42:27;;;;;;;17.37;10.67;;;11.50;99.90;;;;;;5030204;28;20618;-74
2021/09/03 05:44:54;;;;;;;14.93;9.87;;;11.50;99.90;;;;;;5034103;28;20199;-70
2021/09/03 05:47:21;;;;;;;12.80;9.67;;;11.50;99.90;;;;;;5026431;28;20230;-70
2021/09/03 05:49:48;;;;;;;15.70;10.00;;;11.60;99.90;;;;;;5029758;28;20560;-70
2021/09/03 05:52:15;;;;;;;21.63;10.10;;;11.70;99.90;;;;;;5034838;28;20208;-70
2021/09/03 05:54:42;;;;;;;32.73;13.77;;;11.70;99.90;;;;;;5033756;28;20204;-70
2021/09/03 05:57:10;;;;;;;23.50;10.47;;;11.80;99.90;;;;;;5034621;28;20196;-70
2021/09/03 05:59:37;;;;;;;19.73;11.60;;;11.80;99.90;;;;;;5030581;28;20204;-70
2021/09/03 06:02:04;;;;;;;28.93;11.37;;;11.90;99.90;;;;;;5032598;28;20208;-70
2021/09/03 06:04:31;;;;;;;30.00;11.00;;;11.80;99.90;;;;;;5033913;28;20286;-70
2021/09/03 06:06:58;;;;;;;20.30;11.63;;;11.80;99.90;;;;;;5031967;28;20576;-70
2021/09/03 06:09:24;;;;;;;31.57;11.70;;;11.80;99.90;;;;;;5029097;28;20206;-70
2021/09/03 06:11:52;;;;;;;29.67;11.10;;;11.90;99.90;;;;;;5034363;28;20203;-70
2021/09/03 06:14:22;;;;;;;25.53;11.50;;;11.90;99.90;;;;;;5029224;28;20602;-70
2021/09/03 06:16:49;;;;;;;29.83;12.30;;;12.10;99.90;;;;;;5032745;28;20202;-70
2021/09/03 06:19:16;;;;;;;50.43;12.57;;;12.10;99.90;;;;;;5028465;28;20239;-70
2021/09/03 06:21:43;;;;;;;27.10;11.77;;;12.30;99.90;;;;;;5028274;28;20215;-70
2021/09/03 06:26:50;;;;;;;26.40;11.87;;;12.20;99.90;;;;;;5031039;28;20223;-70
2021/09/03 06:29:37;;;;;;;28.93;11.60;;;12.50;99.90;;;;;;5034127;28;20203;-70
2021/09/03 06:32:06;;;;;;;38.13;12.07;;;12.60;99.90;;;;;;5031700;28;20215;-70
2021/09/03 06:34:33;;;;;;;33.30;11.63;;;12.70;99.90;;;;;;5033787;28;20222;-70
2021/09/03 06:37:00;;;;;;;21.30;12.07;;;12.60;99.90;;;;;;5033060;28;20203;-70
2021/09/03 06:39:26;;;;;;;19.73;11.27;;;12.50;99.90;;;;;;5030683;28;20203;-70
2021/09/03 06:41:53;;;;;;;40.47;11.97;;;12.70;99.90;;;;;;5030209;28;20215;-70
2021/09/03 06:44:21;;;;;;;30.80;12.60;;;12.70;99.90;;;;;;5025376;28;20206;-70
2021/09/03 06:46:48;;;;;;;27.23;12.17;;;12.80;99.90;;;;;;5032489;28;20240;-70
2021/09/03 06:49:16;;;;;;;18.90;12.03;;;13.00;99.90;;;;;;5031529;28;20206;-70
2021/09/03 06:51:43;;;;;;;42.23;12.90;;;13.10;99.90;;;;;;5030533;28;20203;-71
2021/09/03 06:54:10;;;;;;;33.27;13.63;;;13.10;99.90;;;;;;5030863;28;20254;-71
2021/09/03 06:56:37;;;;;;;24.10;13.70;;;13.30;99.90;;;;;;5033153;28;20290;-71
2021/09/03 06:59:04;;;;;;;42.00;14.23;;;13.50;99.90;;;;;;5031332;28;20218;-70
2021/09/03 07:01:31;;;;;;;21.73;13.03;;;13.50;99.90;;;;;;5031548;28;20643;-71
2021/09/03 07:03:58;;;;;;;20.10;13.40;;;13.60;99.90;;;;;;5029527;28;20410;-71
2021/09/03 07:06:26;;;;;;;30.87;14.67;;;13.70;99.90;;;;;;5030174;28;20216;-71
2021/09/03 07:08:53;;;;;;;22.90;13.87;;;13.50;99.90;;;;;;5026861;28;20199;-71
2021/09/03 07:11:21;;;;;;;18.67;13.30;;;13.80;99.90;;;;;;5033157;28;20199;-70
2021/09/03 07:13:48;;;;;;;17.30;13.10;;;13.90;99.90;;;;;;5031029;28;20631;-70
2021/09/03 07:16:14;;;;;;;19.53;13.10;;;14.10;99.90;;;;;;5033391;28;20199;-71
2021/09/03 07:18:41;;;;;;;26.23;13.90;;;14.10;99.90;;;;;;5032603;28;20230;-71
2021/09/03 07:21:08;;;;;;;23.47;15.00;;;14.20;99.90;;;;;;5033013;28;20200;-70
2021/09/03 07:23:37;;;;;;;23.20;13.77;;;14.30;99.90;;;;;;5032007;28;20212;-71
2021/09/03 07:26:03;;;;;;;19.13;12.70;;;14.50;99.90;;;;;;5029965;28;20257;-71
2021/09/03 07:28:30;;;;;;;20.97;12.73;;;14.40;99.90;;;;;;5030566;28;20199;-70
2021/09/03 07:30:57;;;;;;;22.63;13.83;;;14.40;99.90;;;;;;5032953;28;20206;-71
2021/09/03 07:33:24;;;;;;;19.80;14.00;;;14.40;99.90;;;;;;5031745;28;20210;-70
2021/09/03 07:35:51;;;;;;;22.33;14.73;;;14.60;99.90;;;;;;5031396;28;20210;-70
2021/09/03 07:38:18;;;;;;;24.40;17.47;;;14.70;99.90;;;;;;5031811;28;20205;-71
2021/09/03 07:40:46;;;;;;;21.87;15.73;;;14.80;99.90;;;;;;5032701;28;20310;-71
2021/09/03 07:43:13;;;;;;;25.53;17.30;;;14.90;99.90;;;;;;5030424;28;20295;-71
2021/09/03 07:45:41;;;;;;;22.30;15.47;;;15.00;99.90;;;;;;5029511;28;20576;-71
2021/09/03 07:48:10;;;;;;;20.75;14.00;;;15.10;99.90;;;;;;5025130;28;20223;-70
2021/09/03 07:50:37;;;;;;;22.33;15.33;;;15.10;99.90;;;;;;5032115;28;20220;-71
2021/09/03 07:53:05;;;;;;;22.48;15.20;;;15.30;99.90;;;;;;5033060;28;20246;-70
2021/09/03 07:55:32;;;;;;;21.83;14.32;;;15.40;99.90;;;;;;5026726;28;20710;-70
2021/09/03 07:58:01;;;;;;;22.15;16.27;;;15.40;99.90;;;;;;5026061;28;20192;-70
2021/09/03 08:00:28;;;;;;;23.92;17.13;;;15.30;99.90;;;;;;5027900;28;20411;-70
2021/09/03 08:02:55;;;;;;;21.73;16.25;;;15.30;99.90;;;;;;5031732;28;20200;-71
2021/09/03 08:05:22;;;;;;;24.45;16.67;;;15.40;99.90;;;;;;5031393;28;20373;-71
2021/09/03 08:07:49;;;;;;;21.15;15.48;;;15.40;99.90;;;;;;5032096;28;20677;-70
2021/09/03 08:10:17;;;;;;;23.05;16.48;;;15.50;99.90;;;;;;5022029;28;20565;-71
2021/09/03 08:12:45;;;;;;;23.85;17.27;;;15.50;99.90;;;;;;5032281;28;20573;-70
2021/09/03 08:15:15;;;;;;;23.52;16.92;;;15.60;99.90;;;;;;5032211;28;20206;-70
2021/09/03 08:17:43;;;;;;;26.02;17.88;;;15.80;99.90;;;;;;5024357;28;20208;-70
2021/09/03 08:20:13;;;;;;;24.77;17.98;;;15.80;99.90;;;;;;5025655;28;20287;-70
2021/09/03 08:22:41;;;;;;;27.95;20.83;;;16.00;99.90;;;;;;5027355;28;20212;-71
2021/09/03 08:25:09;;;;;;;27.90;18.45;;;16.00;99.90;;;;;;5031979;28;20227;-71
2021/09/03 08:27:37;;;;;;;24.52;18.30;;;16.10;99.90;;;;;;5026271;28;20216;-70
2021/09/03 08:30:05;;;;;;;27.30;19.17;;;16.20;99.90;;;;;;5024866;28;20200;-71
2021/09/03 08:32:34;;;;;;;24.67;19.30;;;16.30;99.90;;;;;;5031376;28;20208;-70
2021/09/03 08:35:01;;;;;;;24.48;18.30;;;16.40;99.90;;;;;;5027733;28;20241;-71
2021/09/03 08:37:28;;;;;;;25.17;18.17;;;16.40;99.90;;;;;;5029715;28;20360;-71
2021/09/03 08:39:55;;;;;;;22.05;16.23;;;16.50;99.90;;;;;;5030702;28;20278;-71
2021/09/03 08:42:23;;;;;;;26.88;17.85;;;16.70;99.90;;;;;;5031077;28;20617;-71
2021/09/03 08:44:51;;;;;;;22.88;15.63;;;16.80;99.90;;;;;;5029895;28;20646;-71
2021/09/03 08:47:20;;;;;;;24.02;16.10;;;16.90;99.90;;;;;;5030890;28;20219;-71
2021/09/03 08:49:50;;;;;;;25.05;16.08;;;16.90;99.90;;;;;;5030615;28;20244;-71
2021/09/03 08:52:17;;;;;;;23.42;15.40;;;17.00;99.90;;;;;;5021152;28;20203;-71
2021/09/03 08:54:44;;;;;;;20.02;14.75;;;17.10;99.90;;;;;;5025391;28;20214;-70
2021/09/03 08:57:14;;;;;;;21.35;15.02;;;17.30;99.90;;;;;;5030013;28;20195;-70
2021/09/03 08:59:41;;;;;;;20.75;14.00;;;17.30;99.90;;;;;;5031087;28;20211;-71
2021/09/03 09:02:10;;;;;;;19.73;12.77;;;17.40;99.90;;;;;;5030581;28;20207;-70
2021/09/03 09:04:41;;;;;;;20.50;13.13;;;17.50;99.90;;;;;;5030321;28;20200;-71
2021/09/03 09:07:09;;;;;;;21.25;13.50;;;17.70;99.90;;;;;;5025685;28;20220;-71
2021/09/03 09:09:39;;;;;;;22.48;13.68;;;17.80;99.90;;;;;;5027594;28;20204;-74
2021/09/03 09:12:10;;;;;;;21.75;13.63;;;18.10;99.90;;;;;;5026484;28;20203;-75
2021/09/03 09:15:00;;;;;;;23.85;13.60;;;18.60;99.90;;;;;;5024619;28;20211;-74
2021/09/03 09:17:32;;;;;;;22.42;14.13;;;19.00;99.90;;;;;;5029704;28;20207;-75
2021/09/03 09:19:59;;;;;;;21.70;13.57;;;19.40;99.90;;;;;;5030127;28;20222;-74
2021/09/03 09:22:28;;;;;;;19.80;12.98;;;19.50;99.90;;;;;;5027703;28;20215;-75
2021/09/03 09:25:18;;;;;;;19.13;12.60;;;20.20;99.90;;;;;;5030782;28;20627;-75
2021/09/03 09:27:45;;;;;;;21.85;13.77;;;20.70;99.90;;;;;;5025630;28;20228;-74
2021/09/03 09:30:24;;;;;;;20.70;13.38;;;20.10;99.90;;;;;;5029338;28;20204;-75
2021/09/03 09:33:11;;;;;;;21.23;14.68;;;20.30;99.90;;;;;;5026642;28;20203;-75
2021/09/03 09:35:43;;;;;;;22.88;14.40;;;20.20;99.90;;;;;;5030881;28;20215;-75
2021/09/03 09:38:11;;;;;;;21.40;15.38;;;20.50;99.90;;;;;;5025407;28;20204;-74
2021/09/03 09:40:49;;;;;;;22.30;16.00;;;20.50;99.90;;;;;;5029914;28;20214;-75
2021/09/03 09:43:41;;;;;;;21.73;14.88;;;20.70;99.90;;;;;;5029188;28;20207;-75
2021/09/03 09:46:20;;;;;;;21.67;14.63;;;21.30;99.90;;;;;;5018623;28;20208;-75
2021/09/03 09:48:57;;;;;;;20.52;13.88;;;21.70;99.90;;;;;;5020914;28;20233;-75
2021/09/03 09:51:26;;;;;;;23.13;15.00;;;21.90;99.90;;;;;;5023011;28;20292;-75
2021/09/03 09:53:55;;;;;;;20.85;15.27;;;22.20;99.90;;;;;;5026453;28;20294;-75
2021/09/03 09:56:23;;;;;;;20.83;15.38;;;22.30;99.90;;;;;;5022393;28;20199;-75
2021/09/03 09:58:52;;;;;;;21.23;15.93;;;22.40;99.90;;;;;;5026819;28;20215;-75
2021/09/03 10:01:20;;;;;;;23.35;15.98;;;22.60;99.90;;;;;;5030780;28;20208;-75
2021/09/03 10:03:48;;;;;;;22.23;15.77;;;22.70;99.90;;;;;;5021635;28;20209;-75
2021/09/03 10:06:17;;;;;;;19.98;13.73;;;22.20;99.90;;;;;;5029778;28;20250;-75
2021/09/03 10:08:46;;;;;;;21.02;14.02;;;22.40;99.90;;;;;;5029979;28;20219;-75
2021/09/03 10:11:15;;;;;;;21.90;14.85;;;22.60;99.90;;;;;;5031207;28;20638;-75
2021/09/03 10:13:42;;;;;;;20.67;13.38;;;23.00;99.90;;;;;;5030626;28;20207;-75
2021/09/03 10:16:09;;;;;;;23.83;14.63;;;23.00;99.90;;;;;;5023592;28;20203;-75
2021/09/03 10:18:38;;;;;;;17.60;11.65;;;23.00;99.90;;;;;;5025636;28;20655;-75
2021/09/03 10:21:06;;;;;;;18.08;11.38;;;23.20;99.90;;;;;;5026659;28;20302;-75
2021/09/03 10:23:54;;;;;;;17.40;9.82;;;23.40;99.90;;;;;;5025749;28;20661;-75
2021/09/03 10:26:26;;;;;;;16.40;10.20;;;23.30;99.90;;;;;;5017686;28;20204;-75
2021/09/03 10:29:17;;;;;;;14.80;10.10;;;23.20;99.90;;;;;;5028673;28;20220;-76
2021/09/03 10:32:11;;;;;;;17.38;11.15;;;23.30;99.90;;;;;;5030148;28;20647;-76
2021/09/03 10:35:03;;;;;;;18.65;10.30;;;23.20;99.90;;;;;;5036632;23;20699;-73
2021/09/03 10:37:37;;;;;;;17.92;10.20;;;23.40;99.90;;;;;;5027546;28;20721;-74
2021/09/03 10:40:19;;;;;;;16.20;9.88;;;23.30;99.90;;;;;;5026777;28;20211;-74
2021/09/03 10:42:55;;;;;;;15.48;10.48;;;23.60;99.90;;;;;;5022009;28;20261;-73
2021/09/03 10:45:25;;;;;;;15.40;10.00;;;23.30;99.90;;;;;;5018942;28;20247;-74
2021/09/03 10:48:07;;;;;;;16.00;9.68;;;23.10;99.90;;;;;;5027097;28;20673;-74
2021/09/03 10:50:36;;;;;;;17.33;10.32;;;23.40;99.90;;;;;;5010223;28;20212;-74
2021/09/03 10:53:31;;;;;;;14.32;9.68;;;23.50;99.90;;;;;;5027236;28;20200;-74
2021/09/03 10:56:16;;;;;;;14.20;9.30;;;23.80;99.90;;;;;;5027074;28;20211;-74
2021/09/03 10:58:56;;;;;;;13.55;9.52;;;23.80;99.90;;;;;;5020254;28;20207;-74
2021/09/03 11:01:56;;;;;;;16.52;9.60;;;24.00;99.90;;;;;;5018398;28;20204;-74
2021/09/03 11:04:24;;;;;;;18.45;9.55;;;24.00;99.90;;;;;;5020336;28;20235;-74
2021/09/03 11:07:12;;;;;;;14.07;8.63;;;23.60;99.90;;;;;;5025208;28;20716;-74
2021/09/03 11:09:46;;;;;;;11.95;7.60;;;24.00;99.90;;;;;;5024906;28;20215;-74
2021/09/03 11:12:16;;;;;;;17.75;9.38;;;24.00;99.90;;;;;;5017240;28;20439;-74
2021/09/03 11:14:44;;;;;;;13.13;8.93;;;24.00;99.90;;;;;;5028145;28;20208;-73
2021/09/03 11:17:12;;;;;;;14.70;8.73;;;23.90;99.90;;;;;;5021334;28;20213;-74
2021/09/03 11:19:44;;;;;;;14.95;9.40;;;24.30;99.90;;;;;;5017515;28;20460;-73
2021/09/03 11:22:13;;;;;;;14.82;9.93;;;24.40;99.90;;;;;;5011450;28;20239;-73
2021/09/03 11:24:42;;;;;;;13.43;8.63;;;24.60;99.90;;;;;;5025331;28;20211;-74
2021/09/03 11:27:11;;;;;;;17.42;10.48;;;24.40;99.90;;;;;;5028645;28;20666;-74
2021/09/03 11:29:45;;;;;;;16.33;10.38;;;23.30;99.90;;;;;;5025657;28;20692;-74
2021/09/03 11:32:14;;;;;;;17.52;11.15;;;23.70;99.90;;;;;;5023523;28;20219;-74
2021/09/03 11:34:53;;;;;;;17.20;10.43;;;24.30;99.90;;;;;;5028284;28;20226;-74
2021/09/03 11:37:36;;;;;;;16.50;10.85;;;24.70;99.90;;;;;;5028492;28;20594;-73
2021/09/03 11:40:16;;;;;;;16.60;10.23;;;24.90;99.90;;;;;;5022118;28;20205;-74
2021/09/03 11:42:45;;;;;;;20.55;11.68;;;24.50;99.90;;;;;;5026048;28;20216;-73
2021/09/03 11:45:17;;;;;;;17.30;10.20;;;24.40;99.90;;;;;;5028936;28;20203;-74
2021/09/03 11:47:50;;;;;;;18.67;12.65;;;24.90;99.90;;;;;;5027060;28;20610;-73
2021/09/03 11:50:19;;;;;;;15.05;10.90;;;24.40;99.90;;;;;;5024949;28;20678;-74
2021/09/03 11:52:46;;;;;;;17.02;9.77;;;24.90;99.90;;;;;;5028888;28;20642;-74
2021/09/03 11:55:17;;;;;;;15.05;10.57;;;25.20;99.90;;;;;;5027950;28;20499;-73
2021/09/03 11:58:05;;;;;;;18.88;11.07;;;25.40;99.90;;;;;;5027020;28;20207;-73
2021/09/03 12:00:35;;;;;;;17.48;11.07;;;25.20;99.90;;;;;;5014134;28;20204;-74
2021/09/03 12:03:04;;;;;;;15.82;11.00;;;24.80;99.90;;;;;;5024975;28;20204;-73
2021/09/03 12:05:32;;;;;;;15.98;11.57;;;25.00;99.90;;;;;;5027221;28;20211;-73
2021/09/03 12:08:08;;;;;;;14.02;9.75;;;24.80;99.90;;;;;;5019409;28;20227;-74
2021/09/03 12:10:37;;;;;;;15.52;9.82;;;24.80;99.90;;;;;;5020019;28;20681;-73
2021/09/03 12:13:10;;;;;;;17.42;10.43;;;24.90;99.90;;;;;;5017887;28;20581;-74
2021/09/03 12:15:38;;;;;;;14.30;9.63;;;24.80;99.90;;;;;;5027416;28;20387;-74
2021/09/03 12:18:19;;;;;;;12.60;8.93;;;25.10;99.90;;;;;;5012461;28;20204;-73
2021/09/03 12:20:48;;;;;;;13.60;8.82;;;25.40;99.90;;;;;;5026168;28;20212;-73
2021/09/03 12:23:15;;;;;;;15.07;8.27;;;25.30;99.90;;;;;;5029597;28;20708;-73
2021/09/03 12:25:42;;;;;;;12.70;8.82;;;25.20;99.90;;;;;;5029287;28;20203;-73
2021/09/03 12:28:11;;;;;;;14.15;7.40;;;25.00;99.90;;;;;;5029135;28;20676;-73
2021/09/03 12:30:41;;;;;;;15.68;9.48;;;25.50;99.90;;;;;;5015309;28;20831;-74
2021/09/03 12:33:24;;;;;;;14.82;9.13;;;25.30;99.90;;;;;;5029136;28;20208;-73
2021/09/03 12:35:53;;;;;;;14.73;9.38;;;25.50;99.90;;;;;;5027274;28;20213;-73
2021/09/03 12:38:31;;;;;;;13.43;8.82;;;25.20;99.90;;;;;;5020967;28;20215;-73
2021/09/03 12:41:06;;;;;;;14.57;8.57;;;25.30;99.90;;;;;;5025580;28;20203;-73
2021/09/03 12:43:33;;;;;;;13.48;8.38;;;25.30;99.90;;;;;;5015361;28;20207;-73
2021/09/03 12:46:08;;;;;;;13.57;7.78;;;25.60;99.90;;;;;;5011999;28;20208;-73